createdAt,value
2019-03-19T00:00:53.714Z,98921.42
2019-03-19T00:03:58.179Z,98913.67
2019-03-19T00:07:02.605Z,98919.59
2019-03-19T00:10:10.444Z,98916.76
2019-03-19T00:13:15.112Z,98918.50
2019-03-19T00:16:19.538Z,98921.13
2019-03-19T00:19:23.985Z,98916.76
2019-03-19T00:22:28.410Z,98923.88
2019-03-19T00:25:33.099Z,98927.27
2019-03-19T00:28:39.046Z,98928.17
2019-03-19T00:31:43.643Z,98921.27
2019-03-19T00:34:48.082Z,98921.16
2019-03-19T00:37:52.514Z,98929.92
2019-03-19T00:40:57.268Z,98936.34
2019-03-19T00:44:01.699Z,98930.75
2019-03-19T00:47:06.423Z,98939.50
2019-03-19T00:50:15.541Z,98934.50
2019-03-19T00:53:20.281Z,98938.66
2019-03-19T00:56:24.718Z,98938.12
2019-03-19T00:59:29.445Z,98932.90
2019-03-19T01:02:34.178Z,98932.11
2019-03-19T01:05:38.624Z,98939.06
2019-03-19T01:08:43.038Z,98940.39
2019-03-19T01:11:47.745Z,98941.57
2019-03-19T01:14:52.482Z,98936.48
2019-03-19T01:17:57.217Z,98934.77
2019-03-19T01:21:01.949Z,98931.50
2019-03-19T01:24:06.674Z,98939.45
2019-03-19T01:27:11.404Z,98942.21
2019-03-19T01:30:16.964Z,98944.93
2019-03-19T01:33:21.401Z,98941.17
2019-03-19T01:36:26.107Z,98937.16
2019-03-19T01:39:30.939Z,98941.17
2019-03-19T01:42:35.669Z,98942.10
2019-03-19T01:45:40.106Z,98940.91
2019-03-19T01:48:44.541Z,98935.70
2019-03-19T01:51:48.970Z,98933.34
2019-03-19T01:54:53.787Z,98934.87
2019-03-19T01:57:58.812Z,98938.88
2019-03-19T02:01:03.489Z,98938.39
2019-03-19T02:04:08.174Z,98935.41
2019-03-19T02:07:12.898Z,98936.44
2019-03-19T02:10:17.628Z,98935.73
2019-03-19T02:13:22.060Z,98946.62
2019-03-19T02:16:26.727Z,98943.58
2019-03-19T02:19:31.423Z,98952.81
2019-03-19T02:22:35.858Z,98956.14
2019-03-19T02:25:40.290Z,98952.66
2019-03-19T02:28:44.994Z,98947.26
2019-03-19T02:31:49.826Z,98954.74
2019-03-19T02:34:54.259Z,98956.48
2019-03-19T02:37:58.700Z,98953.33
2019-03-19T02:41:03.133Z,98951.31
2019-03-19T02:44:07.560Z,98953.02
2019-03-19T02:47:12.254Z,98950.19
2019-03-19T02:50:18.246Z,98954.34
2019-03-19T02:53:22.675Z,98953.73
2019-03-19T02:56:33.323Z,98957.60
2019-03-19T02:59:33.525Z,98960.12
2019-03-19T03:02:38.289Z,98968.57
2019-03-19T03:05:42.941Z,98967.28
2019-03-19T03:08:47.628Z,98970.32
2019-03-19T03:11:52.059Z,98970.22
2019-03-19T03:14:56.481Z,98964.91
2019-03-19T03:18:01.216Z,98966.53
2019-03-19T03:21:05.936Z,98964.16
2019-03-19T03:24:10.678Z,98975.19
2019-03-19T03:27:15.400Z,98978.14
2019-03-19T03:30:21.889Z,98967.48
2019-03-19T03:33:26.349Z,98974.94
2019-03-19T03:36:30.789Z,98981.61
2019-03-19T03:39:35.546Z,98972.79
2019-03-19T03:42:42.753Z,98982.82
2019-03-19T03:45:46.458Z,98981.23
2019-03-19T03:48:50.889Z,98988.41
2019-03-19T03:51:55.594Z,98988.80
2019-03-19T03:55:00.029Z,98991.17
2019-03-19T03:58:04.597Z,98998.41
2019-03-19T04:01:09.102Z,99001.98
2019-03-19T04:04:13.544Z,99002.05
2019-03-19T04:07:17.985Z,99008.57
2019-03-19T04:10:22.402Z,99010.66
2019-03-19T04:13:27.177Z,99014.46
2019-03-19T04:16:31.613Z,99022.90
2019-03-19T04:19:36.051Z,99028.27
2019-03-19T04:22:40.760Z,99027.67
2019-03-19T04:25:45.251Z,99023.01
2019-03-19T04:28:51.655Z,99022.81
2019-03-19T04:31:56.375Z,99029.94
2019-03-19T04:35:00.805Z,99028.11
2019-03-19T04:38:05.309Z,99034.64
2019-03-19T04:41:10.055Z,99036.78
2019-03-19T04:44:14.794Z,99045.94
2019-03-19T04:47:19.217Z,99052.74
2019-03-19T04:50:23.945Z,99050.33
2019-03-19T04:53:28.373Z,99051.85
2019-03-19T04:56:32.802Z,99052.97
2019-03-19T04:59:37.243Z,99057.16
2019-03-19T05:02:41.940Z,99061.23
2019-03-19T05:05:46.674Z,99068.06
2019-03-19T05:08:51.406Z,99075.69
2019-03-19T05:11:55.824Z,99080.27
2019-03-19T05:15:00.561Z,99081.91
2019-03-19T05:18:05.393Z,99084.67
2019-03-19T05:21:10.120Z,99086.37
2019-03-19T05:24:14.850Z,99086.05
2019-03-19T05:27:19.583Z,99087.34
2019-03-19T05:30:24.023Z,99089.59
2019-03-19T05:33:28.460Z,99090.52
2019-03-19T05:36:32.896Z,99097.05
2019-03-19T05:39:37.587Z,99105.45
2019-03-19T05:42:42.024Z,99104.84
2019-03-19T05:45:46.483Z,99103.41
2019-03-19T05:48:51.263Z,99103.61
2019-03-19T05:51:55.700Z,99112.27
2019-03-19T05:55:00.145Z,99112.45
2019-03-19T05:58:04.645Z,99109.09
2019-03-19T06:01:09.368Z,99116.95
2019-03-19T06:04:14.113Z,99125.03
2019-03-19T06:07:18.548Z,99126.67
2019-03-19T06:10:25.798Z,99126.64
2019-03-19T06:13:29.413Z,99128.51
2019-03-19T06:16:33.838Z,99134.80
2019-03-19T06:19:38.290Z,99136.14
2019-03-19T06:22:43.000Z,99145.83
2019-03-19T06:25:47.728Z,99146.44
2019-03-19T06:28:52.768Z,99147.07
2019-03-19T06:31:57.197Z,99141.77
2019-03-19T06:35:01.913Z,99147.16
2019-03-19T06:38:06.346Z,99147.42
2019-03-19T06:41:11.077Z,99140.69
2019-03-19T06:44:15.806Z,99138.56
2019-03-19T06:47:20.543Z,99144.09
2019-03-19T06:50:24.987Z,99139.30
2019-03-19T06:53:29.429Z,99143.88
2019-03-19T06:56:33.882Z,99141.19
2019-03-19T06:59:38.316Z,99144.09
2019-03-19T07:02:42.759Z,99148.30
2019-03-19T07:05:47.488Z,99141.50
2019-03-19T07:08:51.932Z,99146.86
2019-03-19T07:11:56.645Z,99148.19
2019-03-19T07:15:01.111Z,99158.71
2019-03-19T07:18:05.821Z,99160.94
2019-03-19T07:21:10.527Z,99160.79
2019-03-19T07:24:15.678Z,99164.73
2019-03-19T07:27:20.717Z,99166.89
2019-03-19T07:30:27.444Z,99169.83
2019-03-19T07:33:31.875Z,99176.64
2019-03-19T07:36:36.321Z,99176.27
2019-03-19T07:39:41.056Z,99177.89
2019-03-19T07:42:45.563Z,99191.75
2019-03-19T07:45:50.001Z,99195.63
2019-03-19T07:48:54.739Z,99190.59
2019-03-19T07:51:59.195Z,99198.25
2019-03-19T07:55:03.992Z,99202.47
2019-03-19T07:58:08.724Z,99196.23
2019-03-19T08:01:13.167Z,99197.73
2019-03-19T08:04:17.601Z,99201.13
2019-03-19T08:07:22.306Z,99201.33
2019-03-19T08:10:26.743Z,99198.19
2019-03-19T08:13:31.463Z,99202.52
2019-03-19T08:16:35.907Z,99204.88
2019-03-19T08:19:40.614Z,99208.86
2019-03-19T08:22:45.110Z,99215.58
2019-03-19T08:25:49.986Z,99221.38
2019-03-19T08:28:55.616Z,99223.37
2019-03-19T08:32:00.562Z,99227.89
2019-03-19T08:35:06.521Z,99228.72
2019-03-19T08:38:10.960Z,99232.67
2019-03-19T08:41:15.402Z,99226.82
2019-03-19T08:44:27.455Z,99232.33
2019-03-19T08:47:25.996Z,99232.47
2019-03-19T08:50:30.687Z,99238.75
2019-03-19T08:53:35.143Z,99238.07
2019-03-19T08:56:39.844Z,99244.22
2019-03-19T08:59:44.282Z,99248.72
2019-03-19T09:02:48.738Z,99252.63
2019-03-19T09:05:53.177Z,99249.90
2019-03-19T09:08:57.612Z,99250.86
2019-03-19T09:12:02.379Z,99252.38
2019-03-19T09:15:20.308Z,99246.87
2019-03-19T09:18:24.755Z,99246.34
2019-03-19T09:21:29.198Z,99250.27
2019-03-19T09:24:33.887Z,99250.34
2019-03-19T09:27:38.328Z,99251.79
2019-03-19T09:30:42.758Z,99250.81
2019-03-19T09:33:47.202Z,99243.31
2019-03-19T09:36:57.206Z,99244.77
2019-03-19T09:39:57.816Z,99248.91
2019-03-19T09:43:02.581Z,99249.83
2019-03-19T09:46:07.315Z,99252.75
2019-03-19T09:49:12.041Z,99254.73
2019-03-19T09:52:16.482Z,99256.77
2019-03-19T09:55:21.193Z,99260.16
2019-03-19T09:58:25.927Z,99265.92
2019-03-19T10:01:30.658Z,99260.59
2019-03-19T10:04:35.099Z,99259.25
2019-03-19T10:07:39.547Z,99262.50
2019-03-19T10:10:44.314Z,99267.55
2019-03-19T10:13:48.859Z,99266.63
2019-03-19T10:16:53.593Z,99269.17
2019-03-19T10:19:58.028Z,99263.84
2019-03-19T10:23:02.747Z,99263.20
2019-03-19T10:26:07.488Z,99262.00
2019-03-19T10:29:12.209Z,99261.84
2019-03-19T10:32:16.656Z,99262.25
2019-03-19T10:35:21.162Z,99256.43
2019-03-19T10:38:25.891Z,99261.33
2019-03-19T10:41:30.616Z,99267.80
2019-03-19T10:44:35.066Z,99268.49
2019-03-19T10:47:39.572Z,99261.27
2019-03-19T10:50:44.016Z,99262.52
2019-03-19T10:53:48.455Z,99257.70
2019-03-19T10:56:52.931Z,99261.97
2019-03-19T11:00:02.049Z,99254.28
2019-03-19T11:03:06.906Z,99261.27
2019-03-19T11:06:11.641Z,99268.75
2019-03-19T11:09:16.081Z,99266.31
2019-03-19T11:12:20.798Z,99267.60
2019-03-19T11:15:27.156Z,99272.16
2019-03-19T11:18:31.894Z,99272.59
2019-03-19T11:21:36.630Z,99268.09
2019-03-19T11:24:41.148Z,99264.21
2019-03-19T11:27:46.038Z,99269.78
2019-03-19T11:30:50.466Z,99260.72
2019-03-19T11:33:54.916Z,99262.55
2019-03-19T11:36:59.677Z,99267.98
2019-03-19T11:40:06.670Z,99254.80
2019-03-19T11:43:11.105Z,99253.47
2019-03-19T11:46:15.546Z,99251.31
2019-03-19T11:49:19.983Z,99256.42
2019-03-19T11:52:24.472Z,99259.26
2019-03-19T11:55:29.177Z,99262.25
2019-03-19T11:58:33.909Z,99262.28
2019-03-19T12:01:38.343Z,99254.76
2019-03-19T12:04:43.055Z,99258.44
2019-03-19T12:07:47.790Z,99259.82
2019-03-19T12:10:52.525Z,99255.33
2019-03-19T12:13:57.252Z,99252.52
2019-03-19T12:17:01.738Z,99250.77
2019-03-19T12:20:12.507Z,99245.38
2019-03-19T12:23:16.954Z,99252.41
2019-03-19T12:26:21.389Z,99250.78
2019-03-19T12:29:25.837Z,99254.60
2019-03-19T12:32:30.553Z,99254.84
2019-03-19T12:35:34.996Z,99256.66
2019-03-19T12:38:39.436Z,99258.22
2019-03-19T12:41:43.877Z,99252.14
2019-03-19T12:44:48.658Z,99245.84
2019-03-19T12:47:53.162Z,99237.14
2019-03-19T12:50:57.604Z,99238.05
2019-03-19T12:54:02.440Z,99234.83
2019-03-19T12:57:07.176Z,99234.04
2019-03-19T13:00:32.962Z,99238.64
2019-03-19T13:03:28.412Z,99236.41
2019-03-19T13:06:32.846Z,99223.19
2019-03-19T13:09:37.307Z,99228.19
2019-03-19T13:12:41.985Z,99221.64
2019-03-19T13:15:46.423Z,99224.13
2019-03-19T13:18:50.869Z,99224.17
2019-03-19T13:21:55.303Z,99220.47
2019-03-19T13:25:00.338Z,99225.88
2019-03-19T13:28:05.075Z,99218.59
2019-03-19T13:31:09.856Z,99217.78
2019-03-19T13:34:14.605Z,99224.97
2019-03-19T13:37:19.322Z,99214.83
2019-03-19T13:40:24.257Z,99220.95
2019-03-19T13:43:28.688Z,99226.95
2019-03-19T13:46:33.145Z,99228.25
2019-03-19T13:49:37.937Z,99230.47
2019-03-19T13:52:42.374Z,99224.36
2019-03-19T13:55:47.089Z,99231.66
2019-03-19T13:58:51.529Z,99233.83
2019-03-19T14:01:56.244Z,99230.25
2019-03-19T14:05:00.694Z,99223.47
2019-03-19T14:08:05.614Z,99226.48
2019-03-19T14:11:10.335Z,99230.52
2019-03-19T14:14:14.777Z,99234.70
2019-03-19T14:17:19.482Z,99232.91
2019-03-19T14:20:23.932Z,99244.69
2019-03-19T14:23:28.640Z,99248.13
2019-03-19T14:26:33.371Z,99243.01
2019-03-19T14:29:37.817Z,99252.72
2019-03-19T14:32:42.259Z,99242.92
2019-03-19T14:35:46.951Z,99236.78
2019-03-19T14:38:51.679Z,99242.70
2019-03-19T14:41:56.410Z,99239.47
2019-03-19T14:45:01.144Z,99238.12
2019-03-19T14:48:06.318Z,99239.19
2019-03-19T14:51:10.892Z,99244.84
2019-03-19T14:54:15.330Z,99238.66
2019-03-19T14:57:20.067Z,99238.89
2019-03-19T15:00:24.687Z,99243.64
2019-03-19T15:03:29.425Z,99246.78
2019-03-19T15:06:33.877Z,99244.84
2019-03-19T15:09:38.336Z,99248.17
2019-03-19T15:12:42.759Z,99242.36
2019-03-19T15:15:47.531Z,99244.80
2019-03-19T15:18:52.259Z,99249.20
2019-03-19T15:21:56.708Z,99249.05
2019-03-19T15:25:01.151Z,99251.27
2019-03-19T15:28:05.940Z,99250.48
2019-03-19T15:31:10.670Z,99247.00
2019-03-19T15:34:15.401Z,99247.80
2019-03-19T15:37:20.134Z,99251.27
2019-03-19T15:40:24.572Z,99252.86
2019-03-19T15:43:29.021Z,99255.44
2019-03-19T15:46:33.713Z,99252.78
2019-03-19T15:49:38.705Z,99249.95
2019-03-19T15:52:43.744Z,99261.41
2019-03-19T15:55:48.616Z,99264.06
2019-03-19T15:58:53.064Z,99268.09
2019-03-19T16:01:57.771Z,99269.44
2019-03-19T16:05:02.218Z,99281.05
2019-03-19T16:08:06.924Z,99281.72
2019-03-19T16:11:11.383Z,99282.22
2019-03-19T16:14:16.081Z,99278.83
2019-03-19T16:17:20.534Z,99283.69
2019-03-19T16:20:25.242Z,99287.16
2019-03-19T16:23:29.964Z,99288.12
2019-03-19T16:26:34.409Z,99296.58
2019-03-19T16:29:39.942Z,99294.51
2019-03-19T16:32:44.780Z,99303.24
2019-03-19T16:35:49.224Z,99304.21
2019-03-19T16:38:54.032Z,99305.44
2019-03-19T16:41:58.482Z,99307.38
2019-03-19T16:45:03.291Z,99307.69
2019-03-19T16:48:07.739Z,99317.00
2019-03-19T16:51:12.186Z,99319.90
2019-03-19T16:54:16.616Z,99326.20
2019-03-19T16:57:21.059Z,99332.21
2019-03-19T17:00:30.140Z,99338.20
2019-03-19T17:03:34.575Z,99341.70
2019-03-19T17:06:39.019Z,99346.08
2019-03-19T17:09:43.462Z,99346.22
2019-03-19T17:12:48.225Z,99348.41
2019-03-19T17:15:52.661Z,99355.80
2019-03-19T17:18:57.381Z,99360.96
2019-03-19T17:22:02.104Z,99369.97
2019-03-19T17:25:13.597Z,99375.84
2019-03-19T17:28:22.422Z,99375.03
2019-03-19T17:31:24.197Z,99385.62
2019-03-19T17:34:29.017Z,99386.02
2019-03-19T17:37:33.467Z,99384.95
2019-03-19T17:40:41.703Z,99396.05
2019-03-19T17:43:44.059Z,99401.82
2019-03-19T17:46:48.759Z,99402.93
2019-03-19T17:49:53.256Z,99399.84
2019-03-19T17:52:57.989Z,99405.55
2019-03-19T17:56:02.749Z,99410.46
2019-03-19T17:59:07.435Z,99414.87
2019-03-19T18:02:23.222Z,99422.22
2019-03-19T18:05:18.683Z,99423.32
2019-03-19T18:08:23.511Z,99436.11
2019-03-19T18:11:28.346Z,99432.53
2019-03-19T18:14:33.020Z,99440.77
2019-03-19T18:17:37.802Z,99441.12
2019-03-19T18:20:42.539Z,99448.98
2019-03-19T18:23:47.271Z,99455.88
2019-03-19T18:26:52.011Z,99456.25
2019-03-19T18:29:56.435Z,99461.55
2019-03-19T18:33:00.879Z,99466.20
2019-03-19T18:36:05.575Z,99472.02
2019-03-19T18:39:10.313Z,99473.34
2019-03-19T18:42:15.044Z,99475.73
2019-03-19T18:45:21.114Z,99475.63
2019-03-19T18:48:25.836Z,99476.61
2019-03-19T18:51:30.569Z,99482.52
2019-03-19T18:54:35.010Z,99482.09
2019-03-19T18:57:41.414Z,99485.70
2019-03-19T19:00:45.890Z,99493.60
2019-03-19T19:03:50.331Z,99499.18
2019-03-19T19:06:55.138Z,99494.05
2019-03-19T19:09:59.878Z,99499.22
2019-03-19T19:13:04.594Z,99504.84
2019-03-19T19:16:09.069Z,99513.22
2019-03-19T19:19:13.514Z,99516.55
2019-03-19T19:22:17.963Z,99514.78
2019-03-19T19:25:26.924Z,99514.18
2019-03-19T19:28:32.043Z,99512.87
2019-03-19T19:31:36.791Z,99513.84
2019-03-19T19:34:41.208Z,99513.66
2019-03-19T19:37:46.030Z,99524.21
2019-03-19T19:40:50.764Z,99518.91
2019-03-19T19:43:55.484Z,99528.41
2019-03-19T19:47:00.267Z,99525.64
2019-03-19T19:50:09.313Z,99524.42
2019-03-19T19:53:15.823Z,99529.84
2019-03-19T19:56:20.660Z,99532.20
2019-03-19T19:59:25.094Z,99533.11
2019-03-19T20:02:29.820Z,99535.05
2019-03-19T20:05:34.297Z,99536.87
2019-03-19T20:08:38.962Z,99538.72
2019-03-19T20:11:43.400Z,99538.22
2019-03-19T20:14:48.121Z,99540.16
2019-03-19T20:17:52.555Z,99537.81
2019-03-19T20:20:57.893Z,99535.47
2019-03-19T20:24:02.328Z,99540.46
2019-03-19T20:27:06.753Z,99540.27
2019-03-19T20:30:18.595Z,99549.42
2019-03-19T20:33:24.928Z,99551.58
2019-03-19T20:36:29.211Z,99546.98
2019-03-19T20:39:33.650Z,99547.32
2019-03-19T20:42:38.077Z,99555.02
2019-03-19T20:45:42.593Z,99561.24
2019-03-19T20:48:47.323Z,99562.95
2019-03-19T20:51:52.063Z,99569.44
2019-03-19T20:54:56.791Z,99563.16
2019-03-19T20:58:01.513Z,99572.16
2019-03-19T21:01:06.251Z,99579.53
2019-03-19T21:04:10.701Z,99580.54
2019-03-19T21:07:15.410Z,99591.87
2019-03-19T21:10:24.588Z,99594.81
2019-03-19T21:13:29.022Z,99601.25
2019-03-19T21:16:33.468Z,99603.03
2019-03-19T21:19:37.910Z,99607.13
2019-03-19T21:22:42.345Z,99612.00
2019-03-19T21:25:46.782Z,99612.99
2019-03-19T21:28:51.217Z,99623.38
2019-03-19T21:31:55.656Z,99625.94
2019-03-19T21:35:00.439Z,99619.15
2019-03-19T21:38:05.269Z,99616.85
2019-03-19T21:41:09.718Z,99626.61
2019-03-19T21:44:14.154Z,99629.61
2019-03-19T21:47:18.886Z,99632.39
2019-03-19T21:50:26.899Z,99635.20
2019-03-19T21:53:31.594Z,99636.50
2019-03-19T21:56:36.030Z,99638.26
2019-03-19T21:59:40.467Z,99636.59
2019-03-19T22:02:44.897Z,99638.92
2019-03-19T22:05:49.338Z,99637.72
2019-03-19T22:08:53.777Z,99645.85
2019-03-19T22:11:58.214Z,99649.13
2019-03-19T22:15:02.964Z,99660.89
2019-03-19T22:18:07.391Z,99657.48
2019-03-19T22:21:11.829Z,99653.44
2019-03-19T22:24:16.262Z,99657.78
2019-03-19T22:27:20.700Z,99647.11
2019-03-19T22:30:25.136Z,99655.42
2019-03-19T22:33:29.924Z,99649.47
2019-03-19T22:36:34.360Z,99656.33
2019-03-19T22:39:42.578Z,99655.03
2019-03-19T22:42:46.686Z,99659.61
2019-03-19T22:45:51.122Z,99656.03
2019-03-19T22:48:55.553Z,99654.27
2019-03-19T22:52:00.246Z,99655.21
2019-03-19T22:55:06.925Z,99665.61
2019-03-19T22:58:11.358Z,99663.12
2019-03-19T23:01:15.874Z,99669.61
2019-03-19T23:04:27.222Z,99671.93
2019-03-19T23:07:27.071Z,99681.86
2019-03-19T23:10:31.648Z,99674.30
2019-03-19T23:13:36.428Z,99677.03
2019-03-19T23:16:40.950Z,99679.02
2019-03-19T23:19:45.388Z,99676.86
2019-03-19T23:22:50.107Z,99680.83
2019-03-19T23:25:54.619Z,99681.39
2019-03-19T23:28:59.047Z,99682.20
2019-03-19T23:32:03.795Z,99688.13
2019-03-19T23:35:08.621Z,99688.73
2019-03-19T23:38:13.047Z,99688.44
2019-03-19T23:41:17.497Z,99689.80
2019-03-19T23:44:21.926Z,99695.20
2019-03-19T23:47:26.725Z,99696.32
2019-03-19T23:50:31.455Z,99697.01
2019-03-19T23:53:35.890Z,99698.42
2019-03-19T23:56:40.614Z,99691.95
2019-03-19T23:59:45.358Z,99702.11
